Time;durP1;ratioP1;P1;durP2;ratioP2;P2;SDS_P1;SDS_P2;PMS_P1;PMS_P2;Temp;Humidity;BMP_temperature;BMP_pressure;BME280_temperature;BME280_humidity;BME280_pressure;Samples;Min_cycle;Max_cycle;Signal;HPM_P1;HPM_P2
2023/10/06 00:02:56;;;;;;;;;;;11.60;58.40;;;7.04;100.00;96471.53;4972369;28;20276;-49
2023/10/06 00:05:23;;;;;;;;;;;11.50;58.30;;;6.95;100.00;96474.44;4965458;28;19910;-52
2023/10/06 00:07:50;;;;;;;;;;;11.50;58.40;;;6.96;100.00;96477.94;4972924;28;19963;-48
2023/10/06 00:10:27;;;;;;;;;;;11.50;58.40;;;6.95;100.00;96479.75;4973435;28;19913;-47
2023/10/06 00:15:39;;;;;;;;;;;11.40;58.50;;;6.94;100.00;96474.69;4977801;28;19922;-49
2023/10/06 00:18:16;;;;;;;;;;;11.40;58.60;;;6.91;100.00;96475.91;4986211;28;19965;-48
2023/10/06 00:20:49;;;;;;;;;;;11.40;59.30;;;6.92;100.00;96469.59;4991016;28;19910;-45
2023/10/06 00:23:22;;;;;;;;;;;11.40;59.30;;;6.95;100.00;96465.69;4987132;28;19955;-47
2023/10/06 00:25:55;;;;;;;;;;;11.40;58.80;;;6.96;100.00;96464.69;4990412;28;19963;-46
2023/10/06 00:28:27;;;;;;;;;;;11.40;58.90;;;6.99;100.00;96469.53;4988701;28;19923;-46
2023/10/06 00:30:56;;;;;;;;;;;11.40;59.00;;;6.98;100.00;96461.78;4985373;28;20289;-47
2023/10/06 00:33:33;;;;;;;;;;;11.40;59.00;;;6.95;100.00;96455.09;4979919;28;19916;-46
2023/10/06 00:36:12;;;;;;;;;;;11.40;59.00;;;6.94;100.00;96472.03;4979481;28;20386;-45
2023/10/06 00:38:39;;;;;;;;;;;11.40;59.00;;;6.89;100.00;96459.47;4982298;28;19968;-46
2023/10/06 00:41:08;;;;;;;;;;;11.40;59.00;;;6.91;100.00;96464.53;4991855;28;20351;-48
2023/10/06 00:43:39;;;;;;;;;;;11.40;59.10;;;6.91;100.00;96464.53;4990875;28;20310;-46
2023/10/06 00:46:07;;;;;;;;;;;11.40;59.10;;;6.89;100.00;96463.91;4983152;28;19909;-45
2023/10/06 00:48:44;;;;;;;;;;;11.40;59.10;;;6.85;100.00;96463.56;4981280;28;20383;-46
2023/10/06 00:51:19;;;;;;;;;;;11.40;59.10;;;6.80;100.00;96465.22;4979261;28;19909;-47
2023/10/06 00:53:52;;;;;;;;;;;11.40;59.10;;;6.79;100.00;96463.63;4991837;28;19917;-46
2023/10/06 00:56:25;;;;;;;;;;;11.30;59.10;;;6.78;100.00;96457.53;4992510;28;19984;-46
2023/10/06 00:58:52;;;;;;;;;;;11.30;59.10;;;6.80;100.00;96455.47;4980319;28;19915;-45
2023/10/06 01:01:19;;;;;;;;;;;11.30;59.10;;;6.79;100.00;96451.19;4995588;28;19921;-46
2023/10/06 01:04:01;;;;;;;;;;;11.20;59.10;;;6.82;100.00;96449.94;4989654;28;19921;-45
2023/10/06 01:06:35;;;;;;;;;;;11.20;59.20;;;6.79;100.00;96455.69;4994391;28;19909;-47
2023/10/06 01:09:16;;;;;;;;;;;11.20;59.20;;;6.72;100.00;96453.09;4990192;28;20291;-46
2023/10/06 01:11:48;;;;;;;;;;;11.20;59.20;;;6.67;100.00;96453.75;4994417;28;19909;-45
2023/10/06 01:14:21;;;;;;;;;;;11.20;59.30;;;6.62;100.00;96450.94;4992788;28;20315;-45
2023/10/06 01:16:49;;;;;;;;;;;11.10;59.30;;;6.62;100.00;96448.31;4985576;28;19924;-45
2023/10/06 01:19:36;;;;;;;;;;;11.10;59.30;;;6.56;100.00;96446.53;4995285;28;19913;-46
2023/10/06 01:22:22;;;;;;;;;;;11.10;60.00;;;6.61;100.00;96446.69;4972806;28;19910;-46
2023/10/06 01:24:48;;;;;;;;;;;11.10;59.50;;;6.63;100.00;96447.28;4993807;28;20368;-46
2023/10/06 01:27:14;;;;;;;;;;;11.10;59.60;;;6.65;100.00;96455.00;4983290;28;19952;-48
2023/10/06 01:29:42;;;;;;;;;;;11.10;59.60;;;6.63;100.00;96454.41;4995017;28;20383;-45
2023/10/06 01:32:09;;;;;;;;;;;11.10;59.70;;;6.60;100.00;96449.53;4990504;28;20391;-48
2023/10/06 01:34:39;;;;;;;;;;;11.10;59.70;;;6.63;100.00;96452.56;4993615;28;20330;-45
2023/10/06 01:37:07;;;;;;;;;;;11.10;59.70;;;6.62;100.00;96450.94;4994994;28;19919;-45
2023/10/06 01:39:35;;;;;;;;;;;11.10;59.70;;;6.60;100.00;96447.69;4983888;28;19909;-47
2023/10/06 01:42:08;;;;;;;;;;;11.10;59.70;;;6.58;100.00;96448.94;4995064;28;19914;-45
2023/10/06 01:44:34;;;;;;;;;;;11.00;59.70;;;6.60;100.00;96447.69;4988080;28;19949;-48
2023/10/06 01:47:04;;;;;;;;;;;11.00;59.80;;;6.64;100.00;96450.72;4994972;28;19910;-45
2023/10/06 01:49:33;;;;;;;;;;;11.00;59.80;;;6.61;100.00;96452.00;4990381;28;19917;-49
2023/10/06 01:52:02;;;;;;;;;;;11.00;59.90;;;6.56;100.00;96443.06;4979438;28;19917;-48
2023/10/06 01:54:34;;;;;;;;;;;11.00;59.80;;;6.50;100.00;96450.03;4994068;28;19913;-49
2023/10/06 01:57:04;;;;;;;;;;;11.00;59.80;;;6.47;100.00;96450.47;4983920;28;20017;-45
2023/10/06 01:59:30;;;;;;;;;;;11.00;59.80;;;6.43;100.00;96444.00;4994574;28;19917;-45
2023/10/06 02:02:01;;;;;;;;;;;11.00;59.80;;;6.40;100.00;96445.25;4992584;28;19937;-47
2023/10/06 02:04:33;;;;;;;;;;;10.90;59.90;;;6.39;100.00;96434.84;4991217;28;20004;-46
2023/10/06 02:07:00;;;;;;;;;;;10.90;59.90;;;6.34;100.00;96440.81;4994332;28;20386;-46
2023/10/06 02:09:28;;;;;;;;;;;10.90;60.00;;;6.29;100.00;96443.28;4992777;28;19909;-47
2023/10/06 02:11:55;;;;;;;;;;;10.80;59.90;;;6.33;100.00;96441.03;4994776;28;19909;-45
2023/10/06 02:14:20;;;;;;;;;;;10.80;59.90;;;6.29;100.00;96443.28;4987438;28;19928;-46
2023/10/06 02:16:48;;;;;;;;;;;10.80;60.00;;;6.30;100.00;96442.28;4986512;28;20354;-48
2023/10/06 02:19:17;;;;;;;;;;;10.80;60.10;;;6.29;100.00;96451.22;4994415;28;20003;-45
2023/10/06 02:21:50;;;;;;;;;;;10.80;60.00;;;6.25;100.00;96448.22;4981853;28;20292;-45
2023/10/06 02:24:16;;;;;;;;;;;10.80;60.10;;;6.23;100.00;96450.25;4993657;28;20135;-46
2023/10/06 02:26:48;;;;;;;;;;;10.80;60.20;;;6.22;100.00;96447.84;4984635;28;20003;-47
2023/10/06 02:29:22;;;;;;;;;;;10.80;60.30;;;6.23;100.00;96449.44;4993949;28;20279;-45
2023/10/06 02:31:52;;;;;;;;;;;10.70;60.30;;;6.24;100.00;96449.25;4986440;28;20398;-46
2023/10/06 02:34:29;;;;;;;;;;;10.70;60.40;;;6.37;100.00;96456.25;4990491;28;19909;-45
2023/10/06 02:37:00;;;;;;;;;;;10.80;60.70;;;6.54;100.00;96453.06;4987390;28;19914;-45
2023/10/06 02:39:28;;;;;;;;;;;10.90;61.10;;;6.76;100.00;96456.13;4985579;28;19916;-46
2023/10/06 02:41:58;;;;;;;;;;;11.00;61.40;;;6.98;100.00;96459.97;4994305;28;20364;-46
2023/10/06 02:44:29;;;;;;;;;;;11.10;61.60;;;7.14;100.00;96463.84;4983944;28;19942;-45
2023/10/06 02:46:55;;;;;;;;;;;11.20;61.80;;;7.25;100.00;96454.38;4994028;28;19967;-48
2023/10/06 02:49:35;;;;;;;;;;;11.40;61.80;;;7.28;100.00;96460.03;4993905;28;19963;-45
2023/10/06 02:52:20;;;;;;;;;;;11.50;61.70;;;7.30;100.00;96459.81;4983006;28;19917;-46
2023/10/06 02:54:56;;;;;;;;;;;11.60;61.60;;;7.28;100.00;96461.88;4993107;28;19913;-46
2023/10/06 02:57:22;;;;;;;;;;;11.60;61.40;;;7.23;100.00;96449.28;4987707;28;20011;-46
2023/10/06 02:59:48;;;;;;;;;;;11.60;61.20;;;7.15;100.00;96447.75;4993559;28;20399;-48
2023/10/06 03:02:17;;;;;;;;;;;11.60;61.00;;;7.05;100.00;96451.94;4986271;28;20261;-47
2023/10/06 03:04:49;;;;;;;;;;;11.60;60.80;;;6.99;100.00;96448.34;4977685;28;19913;-46
2023/10/06 03:07:15;;;;;;;;;;;11.60;60.70;;;6.94;100.00;96446.34;4974107;28;19913;-46
2023/10/06 03:09:46;;;;;;;;;;;11.50;60.60;;;6.86;100.00;96437.88;4972742;28;19909;-47
2023/10/06 03:12:32;;;;;;;;;;;11.50;60.60;;;6.77;100.00;96437.38;4972943;28;19963;-45
2023/10/06 03:14:57;;;;;;;;;;;11.40;60.50;;;6.67;100.00;96435.19;4973907;28;19921;-48
2023/10/06 03:17:23;;;;;;;;;;;11.30;60.50;;;6.63;100.00;96430.56;4971883;28;20292;-47
2023/10/06 03:22:40;;;;;;;;;;;11.20;60.50;;;6.48;100.00;96433.56;4973608;28;19972;-48
2023/10/06 03:25:18;;;;;;;;;;;11.10;60.50;;;6.50;100.00;96439.47;4973325;28;20365;-47
2023/10/06 03:27:53;;;;;;;;;;;11.10;60.70;;;6.46;100.00;96433.00;4983610;28;19936;-48
2023/10/06 03:30:27;;;;;;;;;;;11.00;60.70;;;6.44;100.00;96435.03;4993180;28;19987;-47
2023/10/06 03:32:54;;;;;;;;;;;11.00;60.80;;;6.42;100.00;96434.44;4981983;28;19918;-49
2023/10/06 03:35:36;;;;;;;;;;;11.00;60.80;;;6.37;100.00;96434.28;4987436;28;20265;-49
2023/10/06 03:38:27;;;;;;;;;;;10.90;60.80;;;6.23;100.00;96433.56;4989400;28;19909;-49
2023/10/06 03:44:00;;;;;;;;;;;10.80;60.80;;;6.16;100.00;96438.91;4992306;28;19914;-49
2023/10/06 03:46:18;;;;;;;;;;;10.80;60.90;;;6.14;100.00;96437.50;4984019;28;19913;-47
2023/10/06 03:48:49;;;;;;;;;;;10.70;60.90;;;6.12;100.00;96439.56;4991272;28;19913;-47
2023/10/06 03:51:19;;;;;;;;;;;10.70;61.00;;;6.10;100.00;96442.41;4988898;28;19920;-45
2023/10/06 03:53:48;;;;;;;;;;;10.60;61.00;;;6.02;100.00;96440.06;4992192;28;20376;-45
2023/10/06 03:56:17;;;;;;;;;;;10.60;60.90;;;5.96;100.00;96436.44;4984517;28;19980;-45
2023/10/06 03:58:45;;;;;;;;;;;10.60;61.00;;;5.89;100.00;96427.72;4989786;28;20007;-45
2023/10/06 04:01:14;;;;;;;;;;;10.50;60.90;;;5.85;100.00;96436.28;4992437;28;19910;-46
2023/10/06 04:03:40;;;;;;;;;;;10.50;60.90;;;5.85;100.00;96437.06;4980632;28;19987;-46
2023/10/06 04:06:12;;;;;;;;;;;10.50;61.10;;;5.85;100.00;96436.28;4990531;28;26899;-47
2023/10/06 04:08:40;;;;;;;;;;;10.50;61.30;;;5.90;100.00;96437.25;4989890;28;19920;-45
2023/10/06 04:11:06;;;;;;;;;;;10.40;61.30;;;5.89;100.00;96429.53;4992273;28;20513;-47
2023/10/06 04:13:32;;;;;;;;;;;10.40;61.30;;;5.82;100.00;96423.47;4991265;28;19914;-47
2023/10/06 04:15:58;;;;;;;;;;;10.40;61.40;;;5.77;100.00;96419.66;4980744;28;20398;-47
2023/10/06 04:18:24;;;;;;;;;;;10.40;61.40;;;5.74;100.00;96411.34;4988761;28;19910;-45
2023/10/06 04:20:55;;;;;;;;;;;10.30;61.30;;;5.69;100.00;96414.59;4986324;28;19963;-45
2023/10/06 04:23:24;;;;;;;;;;;10.30;61.30;;;5.68;100.00;96418.28;4991534;28;19917;-45
2023/10/06 04:25:56;;;;;;;;;;;10.30;61.30;;;5.67;100.00;96424.59;4991502;28;19913;-47
2023/10/06 04:28:29;;;;;;;;;;;10.30;61.40;;;5.67;100.00;96426.41;4989080;28;20224;-46
2023/10/06 04:30:58;;;;;;;;;;;10.20;61.50;;;5.71;100.00;96424.97;4992251;28;19917;-45
2023/10/06 04:33:25;;;;;;;;;;;10.20;61.50;;;5.67;100.00;96423.75;4979834;28;19916;-46
2023/10/06 04:35:59;;;;;;;;;;;10.20;61.60;;;5.67;100.00;96426.41;4991876;28;19909;-46
2023/10/06 04:38:27;;;;;;;;;;;10.20;61.60;;;5.67;100.00;96424.59;4984013;28;19921;-48
2023/10/06 04:40:53;;;;;;;;;;;10.20;61.70;;;5.65;100.00;96424.00;4992284;28;19915;-45
2023/10/06 04:43:19;;;;;;;;;;;10.20;61.70;;;5.59;100.00;96416.91;4990284;28;20443;-45
2023/10/06 04:45:47;;;;;;;;;;;10.10;61.60;;;5.53;100.00;96420.41;4983239;28;20450;-46
2023/10/06 04:48:15;;;;;;;;;;;10.20;61.60;;;5.50;100.00;96424.28;4991669;28;19917;-46
2023/10/06 04:50:44;;;;;;;;;;;10.10;61.60;;;5.43;100.00;96415.56;4988711;28;19932;-48
2023/10/06 04:53:11;;;;;;;;;;;10.10;61.60;;;5.40;100.00;96418.63;4991292;28;19913;-47
2023/10/06 04:55:38;;;;;;;;;;;10.00;61.60;;;5.39;100.00;96409.09;4991354;28;19943;-45
2023/10/06 04:58:14;;;;;;;;;;;10.00;61.70;;;5.42;100.00;96418.41;4987189;28;19937;-45
2023/10/06 05:00:41;;;;;;;;;;;10.00;61.80;;;5.42;100.00;96413.97;4991853;28;19913;-45
2023/10/06 05:03:10;;;;;;;;;;;10.00;61.80;;;5.40;100.00;96417.84;4985227;28;19917;-45
2023/10/06 05:05:38;;;;;;;;;;;10.00;61.80;;;5.39;100.00;96417.03;4991590;28;20016;-49
2023/10/06 05:08:05;;;;;;;;;;;9.90;61.90;;;5.40;100.00;96431.03;4989417;28;19910;-50
2023/10/06 05:10:39;;;;;;;;;;;10.00;62.10;;;5.45;100.00;96428.56;4989906;28;19960;-47
2023/10/06 05:13:06;;;;;;;;;;;10.00;62.20;;;5.47;100.00;96431.81;4991230;28;19975;-49
2023/10/06 05:15:36;;;;;;;;;;;10.00;62.20;;;5.45;100.00;96420.63;4982533;28;19917;-46
2023/10/06 05:18:04;;;;;;;;;;;10.00;62.20;;;5.44;100.00;96427.75;4986130;28;20279;-46
2023/10/06 05:20:35;;;;;;;;;;;10.00;62.20;;;5.47;100.00;96437.09;4983630;28;19964;-46
2023/10/06 05:23:07;;;;;;;;;;;10.00;62.20;;;5.52;100.00;96440.75;4991016;28;19913;-48
2023/10/06 05:25:34;;;;;;;;;;;10.00;62.30;;;5.52;100.00;96435.44;4991249;28;19963;-46
2023/10/06 05:28:00;;;;;;;;;;;10.00;62.20;;;5.49;100.00;96429.78;4985645;28;20457;-46
2023/10/06 05:30:27;;;;;;;;;;;10.00;62.10;;;5.47;100.00;96429.97;4991740;28;19971;-45
2023/10/06 05:32:57;;;;;;;;;;;10.00;62.10;;;5.49;100.00;96429.78;4979790;28;20304;-46
2023/10/06 05:35:24;;;;;;;;;;;10.00;62.20;;;5.49;100.00;96435.88;4981171;28;20008;-51
2023/10/06 05:37:50;;;;;;;;;;;10.10;62.20;;;5.55;100.00;96434.22;4981352;28;20284;-47
2023/10/06 05:40:16;;;;;;;;;;;10.00;62.30;;;5.57;100.00;96429.50;4979454;28;20290;-46
2023/10/06 05:42:49;;;;;;;;;;;10.10;62.40;;;5.57;100.00;96435.59;4978703;28;19921;-47
2023/10/06 05:45:18;;;;;;;;;;;10.10;62.40;;;5.56;100.00;96433.19;4971329;28;19913;-47
2023/10/06 05:47:50;;;;;;;;;;;10.10;62.40;;;5.55;100.00;96442.97;4976207;28;19992;-47
2023/10/06 05:50:29;;;;;;;;;;;10.20;62.30;;;5.54;100.00;96437.88;4970595;28;20324;-46
2023/10/06 05:53:01;;;;;;;;;;;10.20;62.30;;;5.55;100.00;96436.88;4983407;28;19915;-45
2023/10/06 05:55:35;;;;;;;;;;;10.20;62.30;;;5.56;100.00;96433.19;4992887;28;19988;-47
2023/10/06 05:58:09;;;;;;;;;;;10.20;62.20;;;5.56;100.00;96431.34;4972116;28;20403;-44
2023/10/06 06:00:43;;;;;;;;;;;10.20;62.30;;;5.55;100.00;96427.09;4990229;28;20000;-45
2023/10/06 06:03:13;;;;;;;;;;;10.20;62.20;;;5.58;100.00;96433.81;4985026;28;19920;-45
2023/10/06 06:05:41;;;;;;;;;;;10.30;62.30;;;5.60;100.00;96441.50;4993687;28;19995;-45
2023/10/06 06:08:09;;;;;;;;;;;10.30;62.30;;;5.66;100.00;96436.16;4991778;28;19952;-46
2023/10/06 06:10:40;;;;;;;;;;;10.30;62.30;;;5.73;100.00;96446.72;4993658;28;19917;-45
2023/10/06 06:13:06;;;;;;;;;;;10.40;62.30;;;5.80;100.00;96453.59;4992793;28;19964;-46
2023/10/06 06:15:32;;;;;;;;;;;10.40;63.10;;;5.87;100.00;96453.53;4988944;28;19921;-46
2023/10/06 06:17:59;;;;;;;;;;;10.50;62.50;;;5.94;100.00;96453.53;4988275;28;20001;-45
2023/10/06 06:20:26;;;;;;;;;;;10.60;62.50;;;5.97;100.00;96456.56;4972621;28;19913;-45
2023/10/06 06:23:02;;;;;;;;;;;10.70;62.50;;;6.02;100.00;96467.31;4973343;28;20361;-44
2023/10/06 06:25:29;;;;;;;;;;;10.70;62.40;;;6.04;100.00;96467.09;4982206;28;20558;-45
2023/10/06 06:28:00;;;;;;;;;;;10.80;62.40;;;6.05;100.00;96467.88;4970410;28;19997;-50
2023/10/06 06:30:27;;;;;;;;;;;10.90;62.30;;;6.09;100.00;96461.16;4973779;28;19933;-46
2023/10/06 06:32:54;;;;;;;;;;;10.90;62.60;;;6.10;100.00;96462.78;4972325;28;19910;-47
2023/10/06 06:35:22;;;;;;;;;;;11.00;62.20;;;6.15;100.00;96461.13;4974054;28;20004;-45
2023/10/06 06:37:51;;;;;;;;;;;11.10;62.20;;;6.20;100.00;96473.69;4972552;28;20632;-48
2023/10/06 06:40:20;;;;;;;;;;;11.10;62.10;;;6.26;100.00;96472.81;5012089;23;19932;-44
2023/10/06 06:42:51;;;;;;;;;;;11.20;62.10;;;6.34;100.00;96495.59;5012514;28;19919;-45
2023/10/06 06:45:17;;;;;;;;;;;11.30;62.10;;;6.42;100.00;96490.00;5012702;28;19916;-45
2023/10/06 06:47:43;;;;;;;;;;;11.40;62.10;;;6.51;100.00;96487.91;5013341;28;19913;-48
2023/10/06 06:50:15;;;;;;;;;;;11.50;62.10;;;6.60;100.00;96484.75;5023750;28;20393;-44
2023/10/06 06:52:45;;;;;;;;;;;11.60;62.10;;;6.69;100.00;96486.13;5021306;28;19915;-46
2023/10/06 06:55:13;;;;;;;;;;;11.70;62.10;;;6.75;100.00;96484.44;5023845;28;19917;-44
2023/10/06 06:57:50;;;;;;;;;;;11.80;62.90;;;6.87;100.00;96477.41;5029881;28;19909;-43
2023/10/06 07:00:24;;;;;;;;;;;11.90;62.00;;;6.99;100.00;96474.84;5019843;28;19913;-43
2023/10/06 07:02:56;;;;;;;;;;;12.00;62.10;;;7.10;100.00;96481.22;5025273;28;19912;-45
2023/10/06 07:05:22;;;;;;;;;;;12.10;62.10;;;7.20;100.00;96481.53;5033618;28;20283;-44
2023/10/06 07:07:52;;;;;;;;;;;12.20;62.00;;;7.36;100.00;96488.06;5033621;28;20355;-45
2023/10/06 07:10:22;;;;;;;;;;;12.40;62.10;;;7.58;100.00;96480.47;5033590;28;19913;-45
2023/10/06 07:12:51;;;;;;;;;;;12.50;62.10;;;7.80;100.00;96488.75;5025334;28;19997;-43
2023/10/06 07:15:19;;;;;;;;;;;12.80;62.00;;;8.04;100.00;96484.34;5028728;28;20394;-48
2023/10/06 07:17:53;;;;;;;;;;;13.10;62.00;;;8.34;100.00;96500.25;5033483;28;19908;-43
2023/10/06 07:20:24;;;;;;;;;;;13.40;61.80;;;8.61;100.00;96499.84;5032238;28;19916;-43
2023/10/06 07:22:54;;;;;;;;;;;13.80;61.70;;;8.88;100.00;96498.38;5033434;28;19912;-45
2023/10/06 07:25:26;;;;;;;;;;;14.20;61.40;;;9.14;100.00;96505.03;5033376;28;19951;-46
2023/10/06 07:27:57;;;;;;;;;;;14.50;61.00;;;9.44;100.00;96506.75;5030873;28;19909;-43
2023/10/06 07:30:26;;;;;;;;;;;14.90;60.80;;;9.72;100.00;96504.13;5032986;28;19958;-52
2023/10/06 07:32:54;;;;;;;;;;;15.40;60.60;;;9.99;100.00;96508.88;5032231;28;20401;-48
2023/10/06 07:35:27;;;;;;;;;;;15.80;60.30;;;10.22;100.00;96515.97;5033225;28;19916;-44
2023/10/06 07:37:53;;;;;;;;;;;16.20;60.10;;;10.50;100.00;96520.47;5032331;28;19909;-48
2023/10/06 07:40:21;;;;;;;;;;;16.60;60.60;;;10.68;100.00;96518.63;5025999;28;19916;-45
2023/10/06 07:42:52;;;;;;;;;;;16.90;59.60;;;10.81;100.00;96508.47;5032741;28;19913;-44
2023/10/06 07:45:19;;;;;;;;;;;17.20;59.40;;;10.95;100.00;96516.13;5025078;28;19913;-46
2023/10/06 07:47:45;;;;;;;;;;;17.40;59.20;;;11.28;100.00;96515.25;5028360;28;19921;-44
2023/10/06 07:50:16;;;;;;;;;;;17.70;59.10;;;11.64;100.00;96513.84;5031999;28;19908;-44
2023/10/06 07:52:44;;;;;;;;;;;17.90;59.00;;;12.06;100.00;96515.16;5021768;28;19916;-43
2023/10/06 07:55:11;;;;;;;;;;;18.20;59.10;;;12.33;100.00;96510.63;5032680;28;20290;-46
2023/10/06 07:57:45;;;;;;;;;;;18.50;58.90;;;12.53;100.00;96518.00;5031612;28;19923;-46
2023/10/06 08:00:18;;;;;;;;;;;18.80;58.60;;;12.88;100.00;96516.69;5032509;28;19931;-44
2023/10/06 08:02:47;;;;;;;;;;;19.10;58.40;;;13.20;100.00;96511.31;5030784;28;19912;-46
2023/10/06 08:05:17;;;;;;;;;;;19.30;58.20;;;13.50;100.00;96512.56;5032957;28;19909;-48
2023/10/06 08:07:44;;;;;;;;;;;19.60;58.20;;;13.83;100.00;96514.06;5032608;28;19923;-47
2023/10/06 08:10:14;;;;;;;;;;;19.90;58.00;;;14.20;100.00;96515.78;5031666;28;19909;-46
2023/10/06 08:12:46;;;;;;;;;;;20.30;58.00;;;14.53;100.00;96514.50;5032827;28;19944;-44
2023/10/06 08:15:17;;;;;;;;;;;20.70;57.90;;;14.76;97.91;96516.69;5026796;28;19944;-45
2023/10/06 08:17:50;;;;;;;;;;;21.00;57.60;;;15.21;97.31;96527.66;5032737;28;19928;-46
2023/10/06 08:20:17;;;;;;;;;;;21.40;57.50;;;15.57;93.48;96522.19;5031270;28;19960;-49
2023/10/06 08:22:46;;;;;;;;;;;21.70;57.40;;;15.92;89.90;96522.09;5032532;28;20027;-44
2023/10/06 08:25:13;;;;;;;;;;;22.10;57.20;;;16.26;86.77;96520.59;5029959;28;19955;-44
2023/10/06 08:27:41;;;;;;;;;;;22.50;57.10;;;16.60;85.21;96516.06;5020224;28;19963;-48
2023/10/06 08:30:16;;;;;;;;;;;22.80;56.90;;;16.94;81.54;96522.56;5031280;28;20360;-47
2023/10/06 08:32:45;;;;;;;;;;;23.20;56.50;;;17.16;81.23;96516.72;5029453;28;20351;-45
2023/10/06 08:35:15;;;;;;;;;;;23.50;56.00;;;17.34;76.83;96521.38;5027781;28;20374;-47
2023/10/06 08:37:47;;;;;;;;;;;23.80;55.50;;;17.67;76.45;96519.66;5031452;28;20355;-46
2023/10/06 08:40:26;;;;;;;;;;;24.10;55.20;;;17.96;75.53;96526.94;5030507;28;19923;-46
2023/10/06 08:42:54;;;;;;;;;;;24.30;54.90;;;18.25;72.98;96516.84;5030931;28;20274;-46
2023/10/06 08:45:22;;;;;;;;;;;24.60;55.20;;;18.33;70.43;96522.66;5026240;28;20008;-47
2023/10/06 08:48:01;;;;;;;;;;;24.90;54.20;;;18.68;69.85;96510.56;5031379;28;19912;-45
2023/10/06 08:50:29;;;;;;;;;;;25.20;53.60;;;18.99;66.63;96516.31;5023854;28;21199;-53
2023/10/06 08:52:57;;;;;;;;;;;25.50;53.10;;;19.19;66.26;96518.66;5020191;28;19913;-47
2023/10/06 08:55:27;;;;;;;;;;;25.70;52.50;;;19.28;64.30;96520.66;5027419;28;19908;-52
2023/10/06 08:57:55;;;;;;;;;;;25.90;52.30;;;19.42;63.34;96518.78;5026371;28;20422;-46
2023/10/06 09:00:26;;;;;;;;;;;26.00;51.70;;;19.70;64.36;96513.44;5019306;28;20291;-45
2023/10/06 09:02:54;;;;;;;;;;;26.10;51.40;;;19.70;62.61;96516.13;5030175;28;19923;-45
2023/10/06 09:05:22;;;;;;;;;;;26.30;51.10;;;19.76;61.51;96513.03;5030748;28;19954;-46
2023/10/06 09:08:05;;;;;;;;;;;26.50;50.80;;;19.96;60.82;96513.72;5025674;28;19959;-45
2023/10/06 09:10:33;;;;;;;;;;;26.60;50.50;;;19.91;59.69;96505.72;5017393;28;19917;-47
2023/10/06 09:13:07;;;;;;;;;;;26.70;50.00;;;19.94;60.20;96505.91;5020599;28;19912;-46
2023/10/06 09:15:37;;;;;;;;;;;26.80;49.70;;;20.13;59.74;96515.81;5031168;28;19915;-45
2023/10/06 09:18:23;;;;;;;;;;;26.90;49.60;;;20.43;60.04;96501.63;5035390;28;20378;-46
2023/10/06 09:20:51;;;;;;;;;;;27.10;49.40;;;20.53;58.82;96501.41;5033522;28;19913;-45
2023/10/06 09:23:39;;;;;;;;;;;27.20;49.30;;;20.60;59.36;96508.31;5034661;28;19994;-46
2023/10/06 09:26:12;;;;;;;;;;;27.20;48.90;;;20.56;58.14;96510.84;5033692;28;19983;-48
2023/10/06 09:29:01;;;;;;;;;;;27.20;48.70;;;20.48;58.10;96496.06;5034647;28;19909;-45
2023/10/06 09:31:39;;;;;;;;;;;27.30;48.50;;;20.35;58.48;96502.34;5026951;28;19909;-54
2023/10/06 09:34:08;;;;;;;;;;;27.50;48.40;;;20.60;58.28;96501.00;5029883;28;19920;-50
2023/10/06 09:36:34;;;;;;;;;;;27.60;48.00;;;20.70;57.64;96494.53;5034479;28;19916;-46
2023/10/06 09:39:00;;;;;;;;;;;27.60;47.70;;;20.77;58.30;96495.69;5028982;28;19917;-49
2023/10/06 09:41:32;;;;;;;;;;;27.80;47.70;;;20.59;57.98;96498.56;5031221;28;19932;-50
2023/10/06 09:44:07;;;;;;;;;;;28.00;47.50;;;20.79;57.88;96501.59;5033234;28;20410;-50
2023/10/06 09:46:34;;;;;;;;;;;28.10;47.40;;;21.08;55.76;96494.16;5034096;28;19910;-46
2023/10/06 09:49:07;;;;;;;;;;;28.40;47.20;;;21.00;55.96;96495.72;5033753;28;19908;-47
2023/10/06 09:51:38;;;;;;;;;;;28.50;46.90;;;21.12;56.62;96490.53;5032520;28;19909;-46
2023/10/06 09:54:09;;;;;;;;;;;28.70;46.50;;;21.52;55.76;96489.78;5033957;28;20046;-45
2023/10/06 09:56:37;;;;;;;;;;;28.90;46.30;;;21.66;54.38;96490.47;5029876;28;19909;-46
2023/10/06 09:59:07;;;;;;;;;;;29.20;46.10;;;22.03;54.20;96489.16;5032759;28;20389;-49
2023/10/06 10:01:36;;;;;;;;;;;29.50;45.70;;;22.25;53.62;96488.25;5033566;28;20004;-48
2023/10/06 10:04:01;;;;;;;;;;;29.70;45.50;;;22.37;53.24;96482.19;5032623;28;20517;-46
2023/10/06 10:06:28;;;;;;;;;;;29.90;45.00;;;22.71;51.62;96477.88;5033692;28;19991;-48
2023/10/06 10:08:54;;;;;;;;;;;30.20;44.80;;;22.92;51.10;96469.88;5029674;28;19912;-47
2023/10/06 10:11:29;;;;;;;;;;;30.40;44.60;;;23.04;51.03;96468.13;5033262;28;19916;-48
2023/10/06 10:14:41;;;;;;;;;;;30.50;44.40;;;23.33;50.48;96472.03;5032808;28;19908;-54
2023/10/06 10:17:24;;;;;;;;;;;30.60;44.10;;;23.59;50.26;96471.94;5028048;28;19908;-48
2023/10/06 10:19:51;;;;;;;;;;;30.90;43.90;;;23.91;50.14;96467.00;5033388;28;20393;-49
2023/10/06 10:22:18;;;;;;;;;;;31.10;43.70;;;24.17;48.52;96462.22;5031575;28;19936;-49
2023/10/06 10:24:44;;;;;;;;;;;31.40;43.50;;;24.30;49.21;96465.78;5033587;28;19948;-51
2023/10/06 10:27:18;;;;;;;;;;;31.60;43.20;;;24.43;48.20;96467.47;5028470;28;19909;-48
2023/10/06 10:29:44;;;;;;;;;;;31.70;43.10;;;24.40;49.67;96464.59;5033264;28;19916;-48
2023/10/06 10:32:17;;;;;;;;;;;31.60;42.80;;;24.28;47.65;96465.31;5031994;28;20295;-52
2023/10/06 10:35:14;;;;;;;;;;;31.60;43.20;;;24.22;47.04;96470.19;5032607;28;19909;-49
2023/10/06 10:38:02;;;;;;;;;;;31.70;42.40;;;23.98;47.67;96462.66;5033247;28;19999;-46
2023/10/06 10:40:47;;;;;;;;;;;31.70;42.20;;;24.04;48.50;96465.16;5031997;28;19950;-46
2023/10/06 10:43:14;;;;;;;;;;;31.80;42.10;;;24.06;48.07;96460.19;5033278;28;20378;-47
2023/10/06 10:45:45;;;;;;;;;;;31.90;41.90;;;24.29;47.42;96461.50;5030820;28;19908;-47
2023/10/06 10:48:15;;;;;;;;;;;31.90;41.70;;;24.13;47.19;96455.84;5033146;28;19909;-47
2023/10/06 10:50:53;;;;;;;;;;;31.90;41.40;;;24.27;47.92;96452.06;5018832;28;20046;-48
2023/10/06 10:53:20;;;;;;;;;;;32.00;41.30;;;24.47;47.80;96456.72;5025266;28;19916;-49
2023/10/06 10:55:50;;;;;;;;;;;32.10;41.20;;;24.51;48.57;96457.66;5015875;28;20286;-47
2023/10/06 10:58:41;;;;;;;;;;;32.10;41.10;;;24.94;48.24;96456.44;5027987;28;19916;-46
2023/10/06 11:01:27;;;;;;;;;;;32.30;41.00;;;24.93;46.69;96452.94;5032068;28;19909;-46
2023/10/06 11:06:49;;;;;;;;;;;32.50;40.70;;;24.73;47.43;96448.34;5024757;28;19916;-47
2023/10/06 11:09:30;;;;;;;;;;;32.40;40.50;;;24.78;46.95;96447.31;5031667;28;20270;-51
2023/10/06 11:11:58;;;;;;;;;;;32.50;40.20;;;24.89;46.44;96443.06;5032906;28;19915;-48
2023/10/06 11:14:27;;;;;;;;;;;32.70;40.00;;;25.07;46.21;96441.75;5027881;28;19917;-50
2023/10/06 11:17:05;;;;;;;;;;;32.90;39.80;;;25.28;45.53;96438.16;5028680;28;19915;-56
2023/10/06 11:19:33;;;;;;;;;;;33.20;39.70;;;25.48;44.62;96433.75;5029048;28;19915;-48
2023/10/06 11:22:19;;;;;;;;;;;33.50;39.50;;;25.45;45.63;96429.00;5030554;28;19912;-47
2023/10/06 11:24:47;;;;;;;;;;;33.80;39.30;;;25.56;44.59;96430.91;5031649;28;19920;-50
2023/10/06 11:27:23;;;;;;;;;;;34.00;39.60;;;25.45;45.03;96421.63;5022412;28;19909;-49
2023/10/06 11:29:54;;;;;;;;;;;34.20;38.80;;;25.82;44.62;96410.69;5031333;28;20067;-47
2023/10/06 11:32:24;;;;;;;;;;;34.30;38.70;;;26.09;43.57;96420.09;5031147;28;20725;-49
2023/10/06 11:34:51;;;;;;;;;;;34.50;38.60;;;26.35;43.06;96411.50;5031697;28;19909;-51
2023/10/06 11:37:22;;;;;;;;;;;34.70;38.50;;;26.53;42.25;96401.91;5026333;28;19909;-47
2023/10/06 11:39:52;;;;;;;;;;;34.80;38.10;;;26.43;42.86;96407.03;5021018;28;19976;-49
2023/10/06 11:42:24;;;;;;;;;;;34.90;37.80;;;26.40;43.33;96400.34;5014640;28;20320;-47
2023/10/06 11:44:53;;;;;;;;;;;35.00;37.70;;;26.55;42.48;96401.56;5016756;28;20030;-50
2023/10/06 11:47:28;;;;;;;;;;;35.00;37.50;;;26.86;42.04;96394.59;5012430;28;19909;-46